createdAt,value
2019-02-04T00:01:38.451Z,-3.30
2019-02-04T00:04:09.142Z,-3.40
2019-02-04T00:06:38.853Z,-3.40
2019-02-04T00:09:08.652Z,-3.40
2019-02-04T00:11:38.366Z,-3.50
2019-02-04T00:14:08.366Z,-3.50
2019-02-04T00:16:41.022Z,-3.50
2019-02-04T00:19:09.372Z,-3.50
2019-02-04T00:21:39.110Z,-3.40
2019-02-04T00:24:09.063Z,-3.40
2019-02-04T00:26:38.656Z,-3.40
2019-02-04T00:29:08.360Z,-3.40
2019-02-04T00:31:38.043Z,-3.30
2019-02-04T00:34:07.635Z,-3.30
2019-02-04T00:36:37.364Z,-3.30
2019-02-04T00:39:08.190Z,-3.30
2019-02-04T00:41:38.256Z,-3.40
2019-02-04T00:44:07.935Z,-3.40
2019-02-04T00:46:37.586Z,-3.30
2019-02-04T00:49:07.209Z,-3.30
2019-02-04T00:51:36.957Z,-3.30
2019-02-04T00:54:06.624Z,-3.30
2019-02-04T00:56:36.912Z,-3.30
2019-02-04T00:59:06.514Z,-3.30
2019-02-04T01:01:36.303Z,-3.30
2019-02-04T01:04:06.988Z,-3.40
2019-02-04T01:06:36.566Z,-3.40
2019-02-04T01:09:08.338Z,-3.40
2019-02-04T01:11:38.130Z,-3.40
2019-02-04T01:14:07.857Z,-3.50
2019-02-04T01:16:37.575Z,-3.40
2019-02-04T01:19:07.244Z,-3.50
2019-02-04T01:21:36.976Z,-3.50
2019-02-04T01:24:06.662Z,-3.50
2019-02-04T01:26:36.329Z,-3.50
2019-02-04T01:29:06.077Z,-3.50
2019-02-04T01:31:35.602Z,-3.50
2019-02-04T01:34:05.251Z,-3.50
2019-02-04T01:36:35.245Z,-3.50
2019-02-04T01:39:07.741Z,-3.40
2019-02-04T01:41:37.441Z,-3.40
2019-02-04T01:44:07.022Z,-3.30
2019-02-04T01:46:36.824Z,-3.30
2019-02-04T01:49:06.382Z,-3.30
2019-02-04T01:51:36.038Z,-3.30
2019-02-04T01:54:05.790Z,-3.40
2019-02-04T01:56:35.414Z,-3.40
2019-02-04T01:59:05.015Z,-3.50
2019-02-04T02:01:34.628Z,-3.50
2019-02-04T02:04:05.167Z,-3.50
2019-02-04T02:06:34.821Z,-3.50
2019-02-04T02:09:09.234Z,-3.50
2019-02-04T02:11:39.268Z,-3.50
2019-02-04T02:14:09.082Z,-3.50
2019-02-04T02:16:39.082Z,-3.50
2019-02-04T02:19:08.766Z,-3.50
2019-02-04T02:21:38.376Z,-3.50
2019-02-04T02:24:08.029Z,-3.50
2019-02-04T02:26:37.658Z,-3.50
2019-02-04T02:29:07.270Z,-3.50
2019-02-04T02:31:36.868Z,-3.50
2019-02-04T02:34:06.493Z,-3.50
2019-02-04T02:36:36.062Z,-3.50
2019-02-04T02:39:07.841Z,-3.50
2019-02-04T02:41:37.507Z,-3.50
2019-02-04T02:44:07.415Z,-3.50
2019-02-04T02:46:37.181Z,-3.40
2019-02-04T02:49:06.750Z,-3.40
2019-02-04T02:51:36.467Z,-3.40
2019-02-04T02:54:06.093Z,-3.40
2019-02-04T02:56:35.734Z,-3.30
2019-02-04T02:59:05.684Z,-3.30
2019-02-04T03:01:35.296Z,-3.30
2019-02-04T03:04:06.102Z,-3.30
2019-02-04T03:06:35.739Z,-3.30
2019-02-04T03:09:07.338Z,-3.20
2019-02-04T03:11:37.426Z,-3.20
2019-02-04T03:14:07.103Z,-3.20
2019-02-04T03:16:36.694Z,-3.10
2019-02-04T03:19:06.381Z,-3.10
2019-02-04T03:21:36.056Z,-3.00
2019-02-04T03:24:05.800Z,-3.00
2019-02-04T03:26:35.848Z,-3.00
2019-02-04T03:29:05.537Z,-3.00
2019-02-04T03:31:38.883Z,-3.00
2019-02-04T03:34:06.423Z,-3.00
2019-02-04T03:36:36.089Z,-2.90
2019-02-04T03:39:07.213Z,-3.00
2019-02-04T03:41:37.384Z,-3.00
2019-02-04T03:44:06.979Z,-3.00
2019-02-04T03:46:36.570Z,-3.00
2019-02-04T03:49:06.207Z,-3.00
2019-02-04T03:51:35.815Z,-2.90
2019-02-04T03:54:05.659Z,-2.90
2019-02-04T03:56:35.312Z,-2.90
2019-02-04T03:59:05.426Z,-2.90
2019-02-04T04:01:35.075Z,-3.00
2019-02-04T04:04:04.654Z,-3.00
2019-02-04T04:06:34.562Z,-3.00
2019-02-04T04:09:06.728Z,-3.00
2019-02-04T04:11:36.342Z,-3.00
2019-02-04T04:14:05.986Z,-3.00
2019-02-04T04:16:35.554Z,-3.00
2019-02-04T04:19:05.256Z,-3.10
2019-02-04T04:21:34.862Z,-3.10
2019-02-04T04:24:04.558Z,-3.10
2019-02-04T04:26:34.217Z,-3.10
2019-02-04T04:29:03.966Z,-3.10
2019-02-04T04:31:33.665Z,-3.10
2019-02-04T04:34:03.707Z,-3.10
2019-02-04T04:36:33.390Z,-3.10
2019-02-04T04:39:04.801Z,-3.10
2019-02-04T04:41:34.443Z,-3.10
2019-02-04T04:44:04.275Z,-3.10
2019-02-04T04:46:33.917Z,-3.10
2019-02-04T04:49:03.577Z,-3.10
2019-02-04T04:51:34.362Z,-3.10
2019-02-04T04:54:04.350Z,-3.10
2019-02-04T04:56:34.165Z,-3.10
2019-02-04T04:59:03.944Z,-3.10
2019-02-04T05:01:33.992Z,-3.10
2019-02-04T05:04:04.084Z,-3.10
2019-02-04T05:06:33.701Z,-3.10
2019-02-04T05:09:04.678Z,-3.10
2019-02-04T05:11:34.553Z,-3.10
2019-02-04T05:14:04.146Z,-3.10
2019-02-04T05:16:34.001Z,-3.00
2019-02-04T05:19:05.102Z,-3.00
2019-02-04T05:21:36.236Z,-3.10
2019-02-04T05:24:07.327Z,-3.10
2019-02-04T05:26:37.004Z,-3.10
2019-02-04T05:29:06.715Z,-3.10
2019-02-04T05:31:36.592Z,-3.10
2019-02-04T05:34:06.772Z,-3.20
2019-02-04T05:36:37.411Z,-3.20
2019-02-04T05:39:08.237Z,-3.20
2019-02-04T05:41:38.248Z,-3.10
2019-02-04T05:44:07.861Z,-3.10
2019-02-04T05:46:37.633Z,-3.10
2019-02-04T05:49:07.251Z,-3.10
2019-02-04T05:51:36.849Z,-3.00
2019-02-04T05:54:06.582Z,-3.00
2019-02-04T05:56:36.356Z,-3.00
2019-02-04T05:59:07.091Z,-3.00
2019-02-04T06:01:36.782Z,-3.10
2019-02-04T06:04:06.410Z,-3.00
2019-02-04T06:06:36.957Z,-3.10
2019-02-04T06:09:08.134Z,-3.00
2019-02-04T06:11:37.819Z,-3.00
2019-02-04T06:14:07.536Z,-3.00
2019-02-04T06:16:37.130Z,-3.00
2019-02-04T06:19:06.885Z,-3.00
2019-02-04T06:21:36.490Z,-3.00
2019-02-04T06:24:06.249Z,-2.90
2019-02-04T06:26:35.895Z,-3.00
2019-02-04T06:29:05.577Z,-3.00
2019-02-04T06:31:35.319Z,-2.90
2019-02-04T06:34:04.914Z,-2.90
2019-02-04T06:36:34.517Z,-2.90
2019-02-04T06:39:07.200Z,-3.00
2019-02-04T06:41:36.824Z,-3.00
2019-02-04T06:44:06.507Z,-3.10
2019-02-04T06:46:36.196Z,-3.00
2019-02-04T06:49:12.565Z,-3.00
2019-02-04T06:51:37.143Z,-3.00
2019-02-04T06:54:06.833Z,-3.00
2019-02-04T06:56:36.429Z,-3.00
2019-02-04T06:59:06.173Z,-3.00
2019-02-04T07:01:35.800Z,-3.00
2019-02-04T07:04:05.687Z,-3.00
2019-02-04T07:06:35.374Z,-3.00
2019-02-04T07:09:07.895Z,-2.90
2019-02-04T07:11:37.611Z,-2.90
2019-02-04T07:14:07.308Z,-2.80
2019-02-04T07:16:36.978Z,-2.80
2019-02-04T07:19:06.965Z,-2.70
2019-02-04T07:21:36.555Z,-2.70
2019-02-04T07:24:06.517Z,-2.60
2019-02-04T07:26:36.252Z,-2.60
2019-02-04T07:29:05.977Z,-2.60
2019-02-04T07:31:35.565Z,-2.50
2019-02-04T07:34:05.279Z,-2.50
2019-02-04T07:36:34.903Z,-2.50
2019-02-04T07:39:07.475Z,-2.40
2019-02-04T07:41:37.203Z,-2.40
2019-02-04T07:44:06.877Z,-2.40
2019-02-04T07:46:36.623Z,-2.40
2019-02-04T07:49:06.375Z,-2.40
2019-02-04T07:51:36.074Z,-2.40
2019-02-04T07:54:05.849Z,-2.40
2019-02-04T07:56:35.505Z,-2.30
2019-02-04T07:59:05.182Z,-2.30
2019-02-04T08:01:35.256Z,-2.30
2019-02-04T08:04:04.918Z,-2.30
2019-02-04T08:06:34.697Z,-2.40
2019-02-04T08:09:07.547Z,-2.30
2019-02-04T08:11:37.163Z,-2.50
2019-02-04T08:14:06.830Z,-2.40
2019-02-04T08:16:36.507Z,-2.40
2019-02-04T08:19:06.122Z,-2.50
2019-02-04T08:21:35.896Z,-2.50
2019-02-04T08:24:05.457Z,-2.50
2019-02-04T08:26:35.083Z,-2.50
2019-02-04T08:29:05.449Z,-2.30
2019-02-04T08:31:35.095Z,-2.30
2019-02-04T08:34:04.713Z,-2.20
2019-02-04T08:36:44.277Z,-2.20
2019-02-04T08:39:07.311Z,-2.30
2019-02-04T08:41:36.907Z,-2.30
2019-02-04T08:44:06.888Z,-2.40
2019-02-04T08:46:37.670Z,-2.30
2019-02-04T08:49:07.285Z,-2.30
2019-02-04T08:51:36.950Z,-2.30
2019-02-04T08:54:06.563Z,-2.40
2019-02-04T08:56:36.157Z,-2.40
2019-02-04T08:59:06.126Z,-2.50
2019-02-04T09:01:35.866Z,-2.60
2019-02-04T09:04:05.534Z,-2.70
2019-02-04T09:06:35.134Z,-2.70
2019-02-04T09:09:07.608Z,-2.70
2019-02-04T09:11:37.333Z,-2.80
2019-02-04T09:14:06.987Z,-2.80
2019-02-04T09:16:36.701Z,-2.80
2019-02-04T09:19:06.977Z,-2.90
2019-02-04T09:21:36.630Z,-2.90
2019-02-04T09:24:06.385Z,-3.00
2019-02-04T09:26:36.055Z,-3.10
2019-02-04T09:29:05.706Z,-3.20
2019-02-04T09:31:35.445Z,-3.20
2019-02-04T09:34:05.106Z,-3.30
2019-02-04T09:36:34.784Z,-3.20
2019-02-04T09:39:07.229Z,-3.10
2019-02-04T09:41:37.227Z,-3.20
2019-02-04T09:44:06.873Z,-3.20
2019-02-04T09:46:36.438Z,-3.10
2019-02-04T09:49:06.123Z,-3.10
2019-02-04T09:51:35.740Z,-3.00
2019-02-04T09:54:05.586Z,-3.10
2019-02-04T09:56:35.693Z,-3.00
2019-02-04T09:59:05.353Z,-3.20
2019-02-04T10:01:35.006Z,-3.10
2019-02-04T10:04:04.722Z,-3.10
2019-02-04T10:06:34.309Z,-3.10
2019-02-04T10:09:05.459Z,-3.00
2019-02-04T10:11:35.218Z,-2.90
2019-02-04T10:14:05.236Z,-2.90
2019-02-04T10:16:35.032Z,-2.80
2019-02-04T10:19:04.794Z,-2.80
2019-02-04T10:21:34.396Z,-2.70
2019-02-04T10:24:04.281Z,-2.60
2019-02-04T10:26:33.877Z,-2.60
2019-02-04T10:29:03.629Z,-2.70
2019-02-04T10:31:33.368Z,-2.70
2019-02-04T10:34:03.261Z,-2.70
2019-02-04T10:36:32.838Z,-2.70
2019-02-04T10:39:04.155Z,-2.70
2019-02-04T10:41:35.385Z,-2.70
2019-02-04T10:44:05.315Z,-2.60
2019-02-04T10:46:34.903Z,-2.50
2019-02-04T10:49:04.570Z,-2.50
2019-02-04T10:51:34.744Z,-2.50
2019-02-04T10:54:05.054Z,-2.40
2019-02-04T10:56:34.720Z,-2.40
2019-02-04T10:59:04.481Z,-2.30
2019-02-04T11:01:34.156Z,-2.30
2019-02-04T11:04:04.074Z,-2.30
2019-02-04T11:06:33.927Z,-2.30
2019-02-04T11:09:05.001Z,-2.10
2019-02-04T11:11:34.763Z,-2.10
2019-02-04T11:14:04.938Z,-2.10
2019-02-04T11:16:34.625Z,-2.10
2019-02-04T11:19:05.064Z,-2.00
2019-02-04T11:21:34.620Z,-1.90
2019-02-04T11:24:04.965Z,-1.80
2019-02-04T11:26:34.660Z,-1.80
2019-02-04T11:29:04.496Z,-1.70
2019-02-04T11:31:34.310Z,-1.60
2019-02-04T11:34:04.231Z,-1.50
2019-02-04T11:36:33.988Z,-1.50
2019-02-04T11:39:05.094Z,-1.50
2019-02-04T11:41:34.733Z,-1.50
2019-02-04T11:44:04.670Z,-1.60
2019-02-04T11:46:36.510Z,-1.50
2019-02-04T11:49:06.068Z,-1.50
2019-02-04T11:51:35.831Z,-1.50
2019-02-04T11:54:05.571Z,-1.40
2019-02-04T11:56:36.830Z,-1.40
2019-02-04T11:59:06.580Z,-1.40
2019-02-04T12:01:36.378Z,-1.40
2019-02-04T12:04:06.057Z,-1.40
2019-02-04T12:06:35.752Z,-1.40
2019-02-04T12:09:07.497Z,-1.40
2019-02-04T12:11:37.179Z,-1.30
2019-02-04T12:14:06.832Z,-1.30
2019-02-04T12:16:36.511Z,-1.30
2019-02-04T12:19:06.197Z,-1.20
2019-02-04T12:21:35.807Z,-1.10
2019-02-04T12:24:05.840Z,-1.10
2019-02-04T12:26:35.462Z,-0.90
2019-02-04T12:29:05.430Z,-0.60
2019-02-04T12:31:35.095Z,-0.60
2019-02-04T12:34:05.029Z,-0.60
2019-02-04T12:36:34.759Z,-0.60
2019-02-04T12:39:08.667Z,-0.60
2019-02-04T12:41:38.275Z,-0.60
2019-02-04T12:44:07.951Z,-0.70
2019-02-04T12:46:37.612Z,-0.70
2019-02-04T12:49:07.296Z,-0.70
2019-02-04T12:51:36.978Z,-0.80
2019-02-04T12:54:06.670Z,-0.70
2019-02-04T12:56:36.625Z,-0.70
2019-02-04T12:59:06.389Z,-0.60
2019-02-04T13:01:36.113Z,-0.60
2019-02-04T13:04:05.828Z,-0.50
2019-02-04T13:06:35.415Z,-0.50
2019-02-04T13:09:07.587Z,-0.40
2019-02-04T13:11:37.262Z,-0.20
2019-02-04T13:14:06.952Z,0.00
2019-02-04T13:16:36.557Z,0.10
2019-02-04T13:19:06.230Z,0.30
2019-02-04T13:21:45.118Z,0.50
2019-02-04T13:24:07.275Z,0.50
2019-02-04T13:26:36.866Z,0.70
2019-02-04T13:29:07.468Z,0.60
2019-02-04T13:31:37.161Z,0.50
2019-02-04T13:34:06.954Z,0.40
2019-02-04T13:36:36.594Z,0.30
2019-02-04T13:39:08.540Z,0.20
2019-02-04T13:41:39.823Z,0.20
2019-02-04T13:44:09.651Z,0.10
2019-02-04T13:46:39.439Z,0.10
2019-02-04T13:49:09.169Z,0.00
2019-02-04T13:51:39.300Z,0.00
2019-02-04T13:54:08.965Z,0.00
2019-02-04T13:56:38.540Z,0.00
2019-02-04T13:59:08.237Z,-0.10
2019-02-04T14:01:37.905Z,-0.10
2019-02-04T14:04:07.575Z,0.00
2019-02-04T14:06:37.271Z,-0.10
2019-02-04T14:09:09.869Z,-0.10
2019-02-04T14:11:39.543Z,-0.10
2019-02-04T14:14:09.154Z,-0.20
2019-02-04T14:16:38.763Z,-0.20
2019-02-04T14:19:08.746Z,-0.20
2019-02-04T14:21:38.472Z,-0.20
2019-02-04T14:24:08.185Z,-0.20
2019-02-04T14:26:37.838Z,-0.20
2019-02-04T14:29:07.414Z,-0.20
2019-02-04T14:31:37.113Z,-0.20
2019-02-04T14:34:06.764Z,-0.10
2019-02-04T14:36:36.448Z,-0.20
2019-02-04T14:39:08.428Z,-0.10
2019-02-04T14:41:38.004Z,-0.20
2019-02-04T14:44:07.956Z,-0.10
2019-02-04T14:46:43.247Z,-0.10
2019-02-04T14:49:35.095Z,-0.10
2019-02-04T14:52:25.982Z,-0.10
2019-02-04T14:55:25.907Z,-0.10
2019-02-04T14:58:15.388Z,-0.10
2019-02-04T15:00:57.456Z,0.00
2019-02-04T15:03:53.846Z,0.00
2019-02-04T15:06:47.646Z,0.00
2019-02-04T15:09:35.110Z,0.10
2019-02-04T15:12:24.241Z,0.00
2019-02-04T15:14:57.972Z,0.00
2019-02-04T15:17:28.327Z,0.10
2019-02-04T15:20:09.995Z,0.00
2019-02-04T15:22:42.665Z,0.00
2019-02-04T15:25:18.029Z,0.00
2019-02-04T15:28:13.459Z,0.00
2019-02-04T15:31:19.399Z,0.00
2019-02-04T15:34:01.140Z,0.00
2019-02-04T15:36:36.412Z,0.10
2019-02-04T15:39:30.181Z,0.00
2019-02-04T15:42:05.583Z,0.00
2019-02-04T15:44:56.289Z,-0.10
2019-02-04T15:47:31.427Z,-0.10
2019-02-04T15:50:31.353Z,-0.10
2019-02-04T15:53:03.790Z,-0.20
2019-02-04T15:55:33.403Z,-0.20
2019-02-04T15:58:03.081Z,-0.20
2019-02-04T16:00:32.764Z,-0.20
2019-02-04T16:03:02.758Z,-0.20
2019-02-04T16:05:32.488Z,-0.20
2019-02-04T16:08:02.157Z,-0.20
2019-02-04T16:10:31.766Z,-0.30
2019-02-04T16:13:01.365Z,-0.30
2019-02-04T16:15:31.066Z,-0.30
2019-02-04T16:18:01.048Z,-0.20
2019-02-04T16:20:30.645Z,-0.20
2019-02-04T16:23:00.363Z,-0.20
2019-02-04T16:25:29.998Z,-0.20
2019-02-04T16:27:59.623Z,-0.20
2019-02-04T16:30:29.315Z,-0.20
2019-02-04T16:32:59.199Z,-0.30
2019-02-04T16:35:28.850Z,-0.20
2019-02-04T16:37:58.542Z,-0.30
2019-02-04T16:40:28.233Z,-0.20
2019-02-04T16:42:57.871Z,-0.20
2019-02-04T16:45:27.592Z,-0.30
2019-02-04T16:47:57.352Z,-0.20
2019-02-04T16:50:28.515Z,-0.30
2019-02-04T16:53:09.754Z,-0.30
2019-02-04T16:55:29.531Z,-0.30
2019-02-04T16:57:59.213Z,-0.30
2019-02-04T17:00:30.865Z,-0.40
2019-02-04T17:03:00.522Z,-0.30
2019-02-04T17:05:30.128Z,-0.30
2019-02-04T17:07:59.928Z,-0.30
2019-02-04T17:10:29.701Z,-0.30
2019-02-04T17:12:59.378Z,-0.30
2019-02-04T17:15:29.317Z,-0.30
2019-02-04T17:17:58.987Z,-0.30
2019-02-04T17:20:30.767Z,-0.30
2019-02-04T17:23:00.453Z,-0.30
2019-02-04T17:25:30.116Z,-0.30
2019-02-04T17:27:59.968Z,-0.30
2019-02-04T17:30:29.735Z,-0.30
2019-02-04T17:33:00.379Z,-0.30
2019-02-04T17:35:30.040Z,-0.30
2019-02-04T17:37:59.778Z,-0.30
2019-02-04T17:40:32.614Z,-0.30
2019-02-04T17:43:02.723Z,-0.20
2019-02-04T17:45:32.549Z,-0.20
2019-02-04T17:48:02.223Z,-0.20
2019-02-04T17:50:31.934Z,-0.20
2019-02-04T17:53:02.532Z,-0.20
2019-02-04T17:55:32.197Z,-0.10
2019-02-04T17:58:01.952Z,-0.10
2019-02-04T18:00:39.054Z,-0.10
2019-02-04T18:03:09.106Z,-0.10
2019-02-04T18:05:38.829Z,-0.10
2019-02-04T18:08:08.615Z,-0.10
2019-02-04T18:10:38.284Z,-0.10
2019-02-04T18:13:07.915Z,-0.10
2019-02-04T18:15:37.605Z,0.00
2019-02-04T18:18:07.365Z,0.00
2019-02-04T18:20:37.217Z,0.00
2019-02-04T18:23:07.276Z,0.00
2019-02-04T18:25:36.881Z,0.00
2019-02-04T18:28:06.677Z,0.00
2019-02-04T18:30:36.781Z,0.10
2019-02-04T18:33:06.437Z,0.10
2019-02-04T18:35:36.648Z,0.10
2019-02-04T18:38:07.329Z,0.10
2019-02-04T18:40:36.921Z,0.20
2019-02-04T18:43:06.541Z,0.20
2019-02-04T18:45:36.384Z,0.20
2019-02-04T18:48:06.534Z,0.20
2019-02-04T18:50:36.546Z,0.20
2019-02-04T18:53:06.410Z,0.20
2019-02-04T18:55:35.997Z,0.20
2019-02-04T18:58:05.656Z,0.30
2019-02-04T19:00:35.586Z,0.30
2019-02-04T19:03:16.942Z,0.30
2019-02-04T19:05:37.419Z,0.40
2019-02-04T19:08:07.251Z,0.40
2019-02-04T19:10:36.908Z,0.50
2019-02-04T19:13:06.559Z,0.40
2019-02-04T19:15:36.238Z,0.50
2019-02-04T19:18:08.898Z,0.50
2019-02-04T19:20:38.737Z,0.50
2019-02-04T19:23:08.582Z,0.50
2019-02-04T19:25:38.253Z,0.60
2019-02-04T19:28:07.940Z,0.60
2019-02-04T19:30:41.103Z,0.60
2019-02-04T19:33:11.023Z,0.70
2019-02-04T19:35:40.671Z,0.70
2019-02-04T19:38:10.316Z,0.60
2019-02-04T19:40:40.975Z,0.70
2019-02-04T19:43:10.600Z,0.70
2019-02-04T19:45:40.282Z,0.70
2019-02-04T19:48:10.053Z,0.80
2019-02-04T19:50:39.727Z,0.80
2019-02-04T19:53:09.343Z,0.80
2019-02-04T19:55:38.986Z,0.80
2019-02-04T19:58:08.504Z,0.80
2019-02-04T20:00:38.254Z,0.90
2019-02-04T20:03:07.920Z,0.90
2019-02-04T20:05:37.583Z,0.90
2019-02-04T20:08:07.470Z,0.90
2019-02-04T20:10:37.110Z,0.90
2019-02-04T20:13:07.339Z,1.00
2019-02-04T20:15:36.993Z,1.00
2019-02-04T20:18:06.733Z,1.00
2019-02-04T20:20:36.423Z,1.00
2019-02-04T20:23:06.137Z,1.10
2019-02-04T20:25:36.297Z,1.10
2019-02-04T20:28:07.845Z,1.10
2019-02-04T20:30:46.530Z,1.10
2019-02-04T20:33:17.255Z,1.10
2019-02-04T20:35:46.931Z,1.20
2019-02-04T20:38:16.656Z,1.20
2019-02-04T20:40:47.826Z,1.20
2019-02-04T20:43:19.053Z,1.20
2019-02-04T20:45:48.726Z,1.20
2019-02-04T20:48:18.378Z,1.20
2019-02-04T20:50:49.962Z,1.20
2019-02-04T20:53:20.771Z,1.20
2019-02-04T20:55:50.462Z,1.20
2019-02-04T20:58:20.084Z,1.20
2019-02-04T21:00:49.733Z,1.20
2019-02-04T21:03:19.410Z,1.20
2019-02-04T21:05:49.088Z,1.30
2019-02-04T21:08:19.272Z,1.20
2019-02-04T21:10:48.914Z,1.30
2019-02-04T21:13:18.636Z,1.20
2019-02-04T21:15:48.333Z,1.30
2019-02-04T21:18:18.049Z,1.20
2019-02-04T21:20:47.628Z,1.20
2019-02-04T21:23:17.730Z,1.30
2019-02-04T21:25:47.421Z,1.20
2019-02-04T21:28:17.027Z,1.20
2019-02-04T21:30:50.057Z,1.20
2019-02-04T21:33:19.456Z,1.20
2019-02-04T21:35:49.123Z,1.20
2019-02-04T21:38:18.775Z,1.30
2019-02-04T21:40:48.458Z,1.20
2019-02-04T21:43:18.081Z,1.30
2019-02-04T21:45:47.687Z,1.20
2019-02-04T21:48:17.334Z,1.20
2019-02-04T21:50:46.933Z,1.20
2019-02-04T21:53:16.622Z,1.20
2019-02-04T21:55:46.294Z,1.30
2019-02-04T21:58:15.975Z,1.20
2019-02-04T22:00:45.618Z,1.20
2019-02-04T22:03:15.248Z,1.30
2019-02-04T22:05:45.782Z,1.20
2019-02-04T22:08:15.396Z,1.20
2019-02-04T22:10:45.365Z,1.20
2019-02-04T22:13:14.944Z,1.20
2019-02-04T22:15:44.658Z,1.20
2019-02-04T22:18:14.329Z,1.20
2019-02-04T22:20:44.204Z,1.20
2019-02-04T22:23:13.774Z,1.20
2019-02-04T22:25:43.746Z,1.20
2019-02-04T22:28:13.338Z,1.20
2019-02-04T22:30:43.295Z,1.20
2019-02-04T22:33:13.016Z,1.20
2019-02-04T22:35:42.615Z,1.30
2019-02-04T22:38:12.332Z,1.10
2019-02-04T22:40:41.991Z,1.10
2019-02-04T22:43:11.653Z,1.10
2019-02-04T22:45:41.241Z,1.10
2019-02-04T22:48:10.866Z,1.20
2019-02-04T22:50:41.009Z,1.10
2019-02-04T22:53:10.616Z,1.10
2019-02-04T22:55:40.263Z,1.10
2019-02-04T22:58:09.934Z,1.10
2019-02-04T23:00:47.041Z,1.10
2019-02-04T23:03:19.402Z,1.10
2019-02-04T23:05:49.017Z,1.10
2019-02-04T23:08:18.619Z,1.10
2019-02-04T23:10:48.232Z,1.10
2019-02-04T23:13:17.894Z,1.10
2019-02-04T23:15:47.590Z,1.20
2019-02-04T23:18:17.241Z,1.10
2019-02-04T23:20:46.978Z,1.10
2019-02-04T23:23:16.616Z,1.10
2019-02-04T23:25:46.272Z,1.10
2019-02-04T23:28:15.941Z,1.10
2019-02-04T23:30:46.000Z,1.10
2019-02-04T23:33:15.587Z,1.20
2019-02-04T23:35:45.247Z,1.20
2019-02-04T23:38:14.914Z,1.20
2019-02-04T23:40:44.517Z,1.20
2019-02-04T23:43:14.199Z,1.20
2019-02-04T23:45:44.270Z,1.20
2019-02-04T23:48:13.878Z,1.20
2019-02-04T23:50:43.518Z,1.20
2019-02-04T23:53:13.180Z,1.10
2019-02-04T23:55:54.156Z,1.20
2019-02-04T23:58:14.022Z,1.20
